createdAt,value
2022-11-16T00:00:05.833Z,12.83
2022-11-16T00:02:09.590Z,12.80
2022-11-16T00:04:13.330Z,12.76
2022-11-16T00:06:17.018Z,12.72
2022-11-16T00:08:21.479Z,12.70
2022-11-16T00:10:24.375Z,12.68
2022-11-16T00:12:27.441Z,12.62
2022-11-16T00:14:33.128Z,12.61
2022-11-16T00:16:36.089Z,12.61
2022-11-16T00:18:39.106Z,12.57
2022-11-16T00:20:41.993Z,12.55
2022-11-16T00:22:44.989Z,12.53
2022-11-16T00:24:49.701Z,12.52
2022-11-16T00:26:54.907Z,12.48
2022-11-16T00:28:58.179Z,12.49
2022-11-16T00:31:01.666Z,12.44
2022-11-16T00:33:05.561Z,12.43
2022-11-16T00:35:09.719Z,12.44
2022-11-16T00:37:12.908Z,12.42
2022-11-16T00:39:16.787Z,12.35
2022-11-16T00:41:23.444Z,12.38
2022-11-16T00:43:26.414Z,12.33
2022-11-16T00:45:29.461Z,12.31
2022-11-16T00:47:32.440Z,12.31
2022-11-16T00:49:35.555Z,12.32
2022-11-16T00:51:39.248Z,12.33
2022-11-16T00:53:43.182Z,12.34
2022-11-16T00:55:47.139Z,12.32
2022-11-16T00:57:53.639Z,12.29
2022-11-16T00:59:58.663Z,12.24
2022-11-16T01:02:01.897Z,12.28
2022-11-16T01:04:05.335Z,12.22
2022-11-16T01:06:10.529Z,12.18
2022-11-16T01:08:13.699Z,12.16
2022-11-16T01:10:19.173Z,12.14
2022-11-16T01:12:21.095Z,12.17
2022-11-16T01:14:26.319Z,12.16
2022-11-16T01:16:35.854Z,12.13
2022-11-16T01:18:42.557Z,12.15
2022-11-16T01:20:46.531Z,12.19
2022-11-16T01:22:50.433Z,12.14
2022-11-16T01:24:54.094Z,12.14
2022-11-16T01:26:58.268Z,12.14
2022-11-16T01:29:05.636Z,12.11
2022-11-16T01:31:14.164Z,12.11
2022-11-16T01:33:17.956Z,12.13
2022-11-16T01:35:20.954Z,12.12
2022-11-16T01:37:24.577Z,12.07
2022-11-16T01:39:27.461Z,12.07
2022-11-16T01:41:34.409Z,12.07
2022-11-16T01:43:53.385Z,12.10
2022-11-16T01:45:57.793Z,12.10
2022-11-16T01:48:02.740Z,12.05
2022-11-16T01:50:12.445Z,12.04
2022-11-16T01:52:20.491Z,12.03
2022-11-16T01:54:23.502Z,12.04
2022-11-16T01:56:33.735Z,12.02
2022-11-16T01:58:48.381Z,12.00
2022-11-16T02:00:57.337Z,11.98
2022-11-16T02:03:24.730Z,11.97
2022-11-16T02:05:36.365Z,11.94
2022-11-16T02:08:11.668Z,11.91
2022-11-16T02:10:20.094Z,11.89
2022-11-16T02:12:40.703Z,11.92
2022-11-16T02:14:55.592Z,11.89
2022-11-16T02:17:08.677Z,11.89
2022-11-16T02:19:48.228Z,11.85
2022-11-16T02:21:57.901Z,11.84
2022-11-16T02:24:31.989Z,11.82
2022-11-16T02:27:04.100Z,11.85
2022-11-16T02:29:20.127Z,11.83
2022-11-16T02:31:26.487Z,11.85
2022-11-16T02:33:32.155Z,11.84
2022-11-16T02:35:39.448Z,11.84
2022-11-16T02:37:46.734Z,11.83
2022-11-16T02:39:53.370Z,11.82
2022-11-16T02:41:57.651Z,11.83
2022-11-16T02:44:04.650Z,11.78
2022-11-16T02:46:12.016Z,11.84
2022-11-16T02:48:18.761Z,11.81
2022-11-16T02:50:23.360Z,11.78
2022-11-16T02:52:27.413Z,11.78
2022-11-16T02:54:30.664Z,11.79
2022-11-16T02:56:43.718Z,11.77
2022-11-16T02:58:48.196Z,11.74
2022-11-16T03:00:56.031Z,11.76
2022-11-16T03:03:09.503Z,11.74
2022-11-16T03:05:16.980Z,11.75
2022-11-16T03:07:30.693Z,11.75
2022-11-16T03:09:36.989Z,11.77
2022-11-16T03:12:02.842Z,11.71
2022-11-16T03:14:12.473Z,11.77
2022-11-16T03:16:17.837Z,11.75
2022-11-16T03:18:23.492Z,11.82
2022-11-16T03:20:28.449Z,11.85
2022-11-16T03:22:35.202Z,11.85
2022-11-16T03:24:39.052Z,11.83
2022-11-16T03:26:46.250Z,11.80
2022-11-16T03:28:53.673Z,11.85
2022-11-16T03:31:01.239Z,11.86
2022-11-16T03:33:08.823Z,11.86
2022-11-16T03:35:17.203Z,11.88
2022-11-16T03:37:20.860Z,11.89
2022-11-16T03:39:26.492Z,11.91
2022-11-16T03:41:30.496Z,11.92
2022-11-16T03:43:35.195Z,11.92
2022-11-16T03:45:39.116Z,11.94
2022-11-16T03:47:44.196Z,11.90
2022-11-16T03:49:47.675Z,11.92
2022-11-16T03:51:54.839Z,11.95
2022-11-16T03:53:58.612Z,11.95
2022-11-16T03:56:01.999Z,11.96
2022-11-16T03:58:05.083Z,11.95
2022-11-16T04:00:10.701Z,11.93
2022-11-16T04:02:18.275Z,11.98
2022-11-16T04:04:39.198Z,11.99
2022-11-16T04:06:59.766Z,12.00
2022-11-16T04:09:22.015Z,12.02
2022-11-16T04:11:42.782Z,12.01
2022-11-16T04:14:08.004Z,12.01
2022-11-16T04:16:29.767Z,12.00
2022-11-16T04:18:50.186Z,12.00
2022-11-16T04:21:10.765Z,11.99
2022-11-16T04:23:33.154Z,11.93
2022-11-16T04:25:40.591Z,11.95
2022-11-16T04:28:08.247Z,11.95
2022-11-16T04:30:14.135Z,11.97
2022-11-16T04:32:35.656Z,11.94
2022-11-16T04:34:55.984Z,11.94
2022-11-16T04:37:31.132Z,11.96
2022-11-16T04:39:34.091Z,11.96
2022-11-16T04:41:56.294Z,11.97
2022-11-16T04:43:59.397Z,11.97
2022-11-16T04:46:25.114Z,11.99
2022-11-16T04:48:28.004Z,11.96
2022-11-16T04:50:31.802Z,11.93
2022-11-16T04:52:36.085Z,11.89
2022-11-16T04:54:40.611Z,11.94
2022-11-16T04:56:46.276Z,11.91
2022-11-16T04:58:49.326Z,11.93
2022-11-16T05:00:52.766Z,11.93
2022-11-16T05:03:01.220Z,11.92
2022-11-16T05:05:05.988Z,11.89
2022-11-16T05:07:12.010Z,11.91
2022-11-16T05:09:16.789Z,11.91
2022-11-16T05:11:20.215Z,11.93
2022-11-16T05:13:24.862Z,11.92
2022-11-16T05:15:29.112Z,11.91
2022-11-16T05:17:34.264Z,11.82
2022-11-16T05:19:55.125Z,11.88
2022-11-16T05:22:00.097Z,11.90
2022-11-16T05:24:21.595Z,11.89
2022-11-16T05:26:25.400Z,11.83
2022-11-16T05:28:31.525Z,11.83
2022-11-16T05:30:34.797Z,11.90
2022-11-16T05:32:39.422Z,11.89
2022-11-16T05:34:44.504Z,11.90
2022-11-16T05:36:47.722Z,11.89
2022-11-16T05:38:55.980Z,11.92
2022-11-16T05:41:01.137Z,11.88
2022-11-16T05:43:05.331Z,11.89
2022-11-16T05:45:20.760Z,11.88
2022-11-16T05:47:24.807Z,11.85
2022-11-16T05:49:27.844Z,11.85
2022-11-16T05:51:31.266Z,11.90
2022-11-16T05:53:36.175Z,11.87
2022-11-16T05:55:40.436Z,11.86
2022-11-16T05:57:43.797Z,11.87
2022-11-16T05:59:47.367Z,11.88
2022-11-16T06:01:52.416Z,11.84
2022-11-16T06:03:55.973Z,11.82
2022-11-16T06:05:59.871Z,11.78
2022-11-16T06:08:05.219Z,11.80
2022-11-16T06:10:09.512Z,11.78
2022-11-16T06:12:12.660Z,11.82
2022-11-16T06:14:15.825Z,11.77
2022-11-16T06:16:19.674Z,11.77
2022-11-16T06:18:24.883Z,11.81
2022-11-16T06:20:27.928Z,11.81
2022-11-16T06:22:30.937Z,11.80
2022-11-16T06:24:33.916Z,11.78
2022-11-16T06:26:37.221Z,11.83
2022-11-16T06:28:40.589Z,11.81
2022-11-16T06:30:43.498Z,11.68
2022-11-16T06:32:47.437Z,11.70
2022-11-16T06:34:52.518Z,11.61
2022-11-16T06:36:56.141Z,11.64
2022-11-16T06:39:01.015Z,11.66
2022-11-16T06:41:06.266Z,11.59
2022-11-16T06:43:15.509Z,11.54
2022-11-16T06:45:19.168Z,11.64
2022-11-16T06:47:26.820Z,11.57
2022-11-16T06:49:30.180Z,11.55
2022-11-16T06:51:38.729Z,11.56
2022-11-16T06:53:41.975Z,11.60
2022-11-16T06:55:45.043Z,11.48
2022-11-16T06:57:48.937Z,11.50
2022-11-16T06:59:53.812Z,11.58
2022-11-16T07:01:56.917Z,11.58
2022-11-16T07:04:00.730Z,11.56
2022-11-16T07:06:07.786Z,11.59
2022-11-16T07:08:12.195Z,11.55
2022-11-16T07:10:15.326Z,11.59
2022-11-16T07:12:19.311Z,11.56
2022-11-16T07:14:22.788Z,11.55
2022-11-16T07:16:26.077Z,11.58
2022-11-16T07:18:35.196Z,11.57
2022-11-16T07:20:38.972Z,11.58
2022-11-16T07:22:42.300Z,11.59
2022-11-16T07:24:50.497Z,11.55
2022-11-16T07:26:55.304Z,11.55
2022-11-16T07:29:02.275Z,11.56
2022-11-16T07:31:08.058Z,11.56
2022-11-16T07:33:11.040Z,11.57
2022-11-16T07:35:32.917Z,11.66
2022-11-16T07:37:37.386Z,11.66
2022-11-16T07:39:40.726Z,11.72
2022-11-16T07:41:47.082Z,11.71
2022-11-16T07:44:06.426Z,11.72
2022-11-16T07:48:37.635Z,11.77
2022-11-16T07:50:52.514Z,11.80
2022-11-16T07:52:56.738Z,11.75
2022-11-16T07:54:59.863Z,11.67
2022-11-16T07:57:06.023Z,11.81
2022-11-16T07:59:09.713Z,11.94
2022-11-16T08:01:18.036Z,12.10
2022-11-16T08:03:24.811Z,12.13
2022-11-16T08:05:29.829Z,12.12
2022-11-16T08:07:34.521Z,12.34
2022-11-16T08:09:38.156Z,12.33
2022-11-16T08:11:41.730Z,12.51
2022-11-16T08:13:46.246Z,12.39
2022-11-16T08:15:51.932Z,12.42
2022-11-16T08:17:55.337Z,12.20
2022-11-16T08:19:58.560Z,12.14
2022-11-16T08:22:01.953Z,12.18
2022-11-16T08:24:14.356Z,12.18
2022-11-16T08:26:21.959Z,12.30
2022-11-16T08:28:33.264Z,12.35
2022-11-16T08:30:39.926Z,12.32
2022-11-16T08:32:45.479Z,12.31
2022-11-16T08:34:48.946Z,12.35
2022-11-16T08:36:52.555Z,12.25
2022-11-16T08:39:01.599Z,12.36
2022-11-16T08:41:06.159Z,12.36
2022-11-16T08:43:11.066Z,12.46
2022-11-16T08:45:14.188Z,12.43
2022-11-16T08:47:19.448Z,12.36
2022-11-16T08:49:31.163Z,12.33
2022-11-16T08:51:34.547Z,12.50
2022-11-16T08:53:40.831Z,12.51
2022-11-16T08:55:57.933Z,12.53
2022-11-16T08:58:00.988Z,12.55
2022-11-16T09:00:08.221Z,12.71
2022-11-16T09:02:23.442Z,12.70
2022-11-16T09:04:29.640Z,12.95
2022-11-16T09:06:52.703Z,12.99
2022-11-16T09:08:59.521Z,13.02
2022-11-16T09:11:05.590Z,13.34
2022-11-16T09:13:08.895Z,13.36
2022-11-16T09:15:14.495Z,13.36
2022-11-16T09:17:26.164Z,13.50
2022-11-16T09:19:30.373Z,13.49
2022-11-16T09:21:33.414Z,13.46
2022-11-16T09:23:36.619Z,13.57
2022-11-16T09:25:39.503Z,13.54
2022-11-16T09:27:42.386Z,13.62
2022-11-16T09:29:45.314Z,13.71
2022-11-16T09:31:48.570Z,13.92
2022-11-16T09:33:51.681Z,13.90
2022-11-16T09:35:56.244Z,13.84
2022-11-16T09:37:59.227Z,14.05
2022-11-16T09:40:02.318Z,14.13
2022-11-16T09:42:15.164Z,13.97
2022-11-16T09:44:33.181Z,13.82
2022-11-16T09:46:38.167Z,13.75
2022-11-16T09:48:41.628Z,13.87
2022-11-16T09:50:48.240Z,13.98
2022-11-16T09:52:53.998Z,14.17
2022-11-16T09:54:57.535Z,14.30
2022-11-16T09:57:03.323Z,14.27
2022-11-16T09:59:18.115Z,14.28
2022-11-16T10:01:25.492Z,14.17
2022-11-16T10:03:29.227Z,14.34
2022-11-16T10:05:36.891Z,14.55
2022-11-16T10:07:44.928Z,14.57
2022-11-16T10:09:49.545Z,14.49
2022-11-16T10:12:12.601Z,14.56
2022-11-16T10:14:43.814Z,14.52
2022-11-16T10:16:51.106Z,14.30
2022-11-16T10:18:57.371Z,14.24
2022-11-16T10:21:22.887Z,14.44
2022-11-16T10:23:43.466Z,14.43
2022-11-16T10:25:53.988Z,14.55
2022-11-16T10:28:14.736Z,14.48
2022-11-16T10:30:18.932Z,14.22
2022-11-16T10:32:26.125Z,13.67
2022-11-16T10:34:37.847Z,13.50
2022-11-16T10:36:40.719Z,13.49
2022-11-16T10:38:45.541Z,13.65
2022-11-16T10:40:53.745Z,13.46
2022-11-16T10:43:13.736Z,13.45
2022-11-16T10:45:20.675Z,13.32
2022-11-16T10:47:30.876Z,13.37
2022-11-16T10:49:41.062Z,13.38
2022-11-16T10:51:44.055Z,13.66
2022-11-16T10:53:47.071Z,13.95
2022-11-16T10:56:18.575Z,14.13
2022-11-16T10:58:21.441Z,14.23
2022-11-16T11:00:39.918Z,14.26
2022-11-16T11:02:49.151Z,14.46
2022-11-16T11:05:03.851Z,14.39
2022-11-16T11:07:27.253Z,14.95
2022-11-16T11:09:32.301Z,14.82
2022-11-16T11:11:56.721Z,14.41
2022-11-16T11:14:10.163Z,14.91
2022-11-16T11:16:32.367Z,14.99
2022-11-16T11:18:35.561Z,15.06
2022-11-16T11:20:44.833Z,15.22
2022-11-16T11:22:53.350Z,14.94
2022-11-16T11:24:56.665Z,15.31
2022-11-16T11:27:01.328Z,15.37
2022-11-16T11:29:18.721Z,15.54
2022-11-16T11:31:34.838Z,15.59
2022-11-16T11:33:39.140Z,15.65
2022-11-16T11:35:42.416Z,15.62
2022-11-16T11:37:45.370Z,15.66
2022-11-16T11:40:07.869Z,15.86
2022-11-16T11:42:23.159Z,15.57
2022-11-16T11:44:39.848Z,15.84
2022-11-16T11:49:33.301Z,15.99
2022-11-16T11:51:40.076Z,16.00
2022-11-16T11:53:55.216Z,16.19
2022-11-16T11:56:00.511Z,16.15
2022-11-16T11:58:31.947Z,15.96
2022-11-16T12:00:40.527Z,15.41
2022-11-16T12:03:17.633Z,15.45
2022-11-16T12:05:46.109Z,15.62
2022-11-16T12:08:08.802Z,15.46
2022-11-16T12:10:23.093Z,15.52
2022-11-16T12:12:56.703Z,15.59
2022-11-16T12:15:50.751Z,15.43
2022-11-16T12:18:23.273Z,15.37
2022-11-16T12:20:58.104Z,15.47
2022-11-16T12:23:27.673Z,15.67
2022-11-16T12:25:47.000Z,15.51
2022-11-16T12:27:58.030Z,15.69
2022-11-16T12:30:15.895Z,15.89
2022-11-16T12:32:37.673Z,15.90
2022-11-16T12:34:53.388Z,15.35
2022-11-16T12:37:10.745Z,15.32
2022-11-16T12:39:37.635Z,15.44
2022-11-16T12:42:16.045Z,15.45
2022-11-16T12:44:23.208Z,15.49
2022-11-16T12:46:32.025Z,15.51
2022-11-16T12:48:57.404Z,15.52
2022-11-16T12:51:12.737Z,15.62
2022-11-16T12:53:56.843Z,15.66
2022-11-16T12:56:03.417Z,15.55
2022-11-16T12:58:22.398Z,15.41
2022-11-16T13:00:25.304Z,15.55
2022-11-16T13:02:39.066Z,15.74
2022-11-16T13:04:45.585Z,15.65
2022-11-16T13:06:52.177Z,15.66
2022-11-16T13:09:01.139Z,15.66
2022-11-16T13:11:12.989Z,15.41
2022-11-16T13:13:35.989Z,15.23
2022-11-16T13:15:41.609Z,15.42
2022-11-16T13:17:48.236Z,15.26
2022-11-16T13:20:04.498Z,15.63
2022-11-16T13:22:13.706Z,15.83
2022-11-16T13:24:41.785Z,15.97
2022-11-16T13:26:49.699Z,15.87
2022-11-16T13:29:02.353Z,16.16
2022-11-16T13:31:09.939Z,16.39
2022-11-16T13:33:28.101Z,16.36
2022-11-16T13:35:34.825Z,16.59
2022-11-16T13:37:48.800Z,16.53
2022-11-16T13:40:22.134Z,16.56
2022-11-16T13:42:31.363Z,16.64
2022-11-16T13:44:34.603Z,16.51
2022-11-16T13:46:56.540Z,16.32
2022-11-16T13:48:59.902Z,16.40
2022-11-16T13:51:04.486Z,15.95
2022-11-16T13:55:47.285Z,15.42
2022-11-16T13:57:54.817Z,15.43
2022-11-16T14:00:20.753Z,15.21
2022-11-16T14:02:31.861Z,15.15
2022-11-16T14:04:57.958Z,14.97
2022-11-16T14:07:03.749Z,14.61
2022-11-16T14:09:45.621Z,14.68
2022-11-16T14:11:48.547Z,14.37
2022-11-16T14:13:56.843Z,14.32
2022-11-16T14:16:32.332Z,14.21
2022-11-16T14:18:37.291Z,14.19
2022-11-16T14:20:58.284Z,14.12
2022-11-16T14:23:13.622Z,13.78
2022-11-16T14:25:31.846Z,13.96
2022-11-16T14:27:40.461Z,13.91
2022-11-16T14:29:53.136Z,13.87
2022-11-16T14:31:57.170Z,13.91
2022-11-16T14:34:01.226Z,13.91
2022-11-16T14:36:17.699Z,13.88
2022-11-16T14:38:28.563Z,13.88
2022-11-16T14:40:34.064Z,13.89
2022-11-16T14:43:09.546Z,13.82
2022-11-16T14:45:14.945Z,13.88
2022-11-16T14:47:26.740Z,13.87
2022-11-16T14:49:33.790Z,13.85
2022-11-16T14:51:38.167Z,13.88
2022-11-16T14:53:49.010Z,13.86
2022-11-16T14:55:53.554Z,13.78
2022-11-16T14:58:09.679Z,13.75
2022-11-16T15:00:21.060Z,13.77
2022-11-16T15:02:25.913Z,13.74
2022-11-16T15:04:28.905Z,13.69
2022-11-16T15:06:34.724Z,13.64
2022-11-16T15:08:45.349Z,13.60
2022-11-16T15:10:53.412Z,13.56
2022-11-16T15:12:58.486Z,13.46
2022-11-16T15:15:12.067Z,13.40
2022-11-16T15:17:31.915Z,13.39
2022-11-16T15:19:50.511Z,13.35
2022-11-16T15:21:54.370Z,13.31
2022-11-16T15:26:21.996Z,13.20
2022-11-16T15:28:27.708Z,13.23
2022-11-16T15:30:37.470Z,13.21
2022-11-16T15:32:42.475Z,13.20
2022-11-16T15:34:52.851Z,13.20
2022-11-16T15:36:55.709Z,13.12
2022-11-16T15:38:59.959Z,13.17
2022-11-16T15:41:04.450Z,13.13
2022-11-16T15:47:54.703Z,13.00
2022-11-16T15:50:00.998Z,12.99
2022-11-16T15:52:04.664Z,12.90
2022-11-16T15:54:15.126Z,12.87
2022-11-16T15:56:21.712Z,12.80
2022-11-16T15:58:26.614Z,12.75
2022-11-16T16:00:32.103Z,12.74
2022-11-16T16:02:35.033Z,12.68
2022-11-16T16:04:43.416Z,12.66
2022-11-16T16:06:49.787Z,12.66
2022-11-16T16:09:14.187Z,12.59
2022-11-16T16:11:28.585Z,12.54
2022-11-16T16:13:35.842Z,12.51
2022-11-16T16:15:40.692Z,12.48
2022-11-16T16:17:46.944Z,12.42
2022-11-16T16:19:55.574Z,12.40
2022-11-16T16:21:59.836Z,12.39
2022-11-16T16:24:03.787Z,12.41
2022-11-16T16:26:14.324Z,12.38
2022-11-16T16:28:17.233Z,12.33
2022-11-16T16:30:20.719Z,12.33
2022-11-16T16:32:27.887Z,12.31
2022-11-16T16:34:42.155Z,12.29
2022-11-16T16:36:51.267Z,12.27
2022-11-16T16:38:54.391Z,12.26
2022-11-16T16:41:01.035Z,12.25
2022-11-16T16:43:11.545Z,12.23
2022-11-16T16:45:16.772Z,12.25
2022-11-16T16:47:21.906Z,12.25
2022-11-16T16:49:26.210Z,12.31
2022-11-16T16:51:29.127Z,12.24
2022-11-16T16:53:32.361Z,12.26
2022-11-16T16:55:37.676Z,12.29
2022-11-16T16:57:48.235Z,12.27
2022-11-16T16:59:51.218Z,12.31
2022-11-16T17:01:58.240Z,12.29
2022-11-16T17:04:01.136Z,12.29
2022-11-16T17:06:05.708Z,12.30
2022-11-16T17:08:16.454Z,12.30
2022-11-16T17:10:19.447Z,12.30
2022-11-16T17:12:22.786Z,12.33
2022-11-16T17:14:25.974Z,12.33
2022-11-16T17:16:29.177Z,12.32
2022-11-16T17:18:32.383Z,12.32
2022-11-16T17:20:45.475Z,12.31
2022-11-16T17:23:01.571Z,12.31
2022-11-16T17:25:04.884Z,12.30
2022-11-16T17:27:07.814Z,12.30
2022-11-16T17:29:10.869Z,12.28
2022-11-16T17:31:14.155Z,12.27
2022-11-16T17:33:20.067Z,12.29
2022-11-16T17:35:26.634Z,12.26
2022-11-16T17:37:29.489Z,12.25
2022-11-16T17:39:33.899Z,12.27
2022-11-16T17:41:36.970Z,12.28
2022-11-16T17:43:40.216Z,12.27
2022-11-16T17:45:43.122Z,12.22
2022-11-16T17:47:54.633Z,12.29
2022-11-16T17:49:57.863Z,12.31
2022-11-16T17:52:01.684Z,12.23
2022-11-16T17:54:04.775Z,12.26
2022-11-16T17:56:13.219Z,12.19
2022-11-16T17:58:41.307Z,12.22
2022-11-16T18:00:51.319Z,12.22
2022-11-16T18:02:54.868Z,12.24
2022-11-16T18:05:05.438Z,12.22
2022-11-16T18:07:08.560Z,12.20
2022-11-16T18:09:11.942Z,12.16
2022-11-16T18:11:18.074Z,12.14
2022-11-16T18:13:21.129Z,12.10
2022-11-16T18:15:29.052Z,12.08
2022-11-16T18:17:32.662Z,12.01
2022-11-16T18:19:35.583Z,12.01
2022-11-16T18:21:40.970Z,11.97
2022-11-16T18:23:51.221Z,11.97
2022-11-16T18:25:54.198Z,11.91
2022-11-16T18:28:06.434Z,11.88
2022-11-16T18:30:10.618Z,11.86
2022-11-16T18:32:22.766Z,11.83
2022-11-16T18:34:25.777Z,11.82
2022-11-16T18:36:32.892Z,11.81
2022-11-16T18:38:37.498Z,11.79
2022-11-16T18:40:40.955Z,11.71
2022-11-16T18:42:57.763Z,11.71
2022-11-16T18:45:02.274Z,11.66
2022-11-16T18:47:05.609Z,11.63
2022-11-16T18:49:08.978Z,11.59
2022-11-16T18:53:37.521Z,11.62
2022-11-16T18:55:40.761Z,11.58
2022-11-16T18:57:43.843Z,11.55
2022-11-16T18:59:46.937Z,11.43
2022-11-16T19:01:52.147Z,11.45
2022-11-16T19:03:56.357Z,11.43
2022-11-16T19:06:00.848Z,11.39
2022-11-16T19:08:07.854Z,11.37
2022-11-16T19:10:11.872Z,11.30
2022-11-16T19:12:14.830Z,11.26
2022-11-16T19:14:17.837Z,11.20
2022-11-16T19:16:27.840Z,11.19
2022-11-16T19:18:32.235Z,11.15
2022-11-16T19:20:51.049Z,11.15
2022-11-16T19:22:54.341Z,11.10
2022-11-16T19:25:00.511Z,11.06
2022-11-16T19:27:06.991Z,11.05
2022-11-16T19:29:27.630Z,11.02
2022-11-16T19:31:35.744Z,10.95
2022-11-16T19:33:40.827Z,10.88
2022-11-16T19:35:52.572Z,10.83
2022-11-16T19:37:55.456Z,10.83
2022-11-16T19:40:02.724Z,10.82
2022-11-16T19:42:15.189Z,10.79
2022-11-16T19:44:22.158Z,10.78
2022-11-16T19:46:29.496Z,10.74
2022-11-16T19:48:33.713Z,10.71
2022-11-16T19:50:38.446Z,10.71
2022-11-16T19:52:41.480Z,10.69
2022-11-16T19:54:50.664Z,10.64
2022-11-16T19:56:55.175Z,10.68
2022-11-16T19:59:06.384Z,10.70
2022-11-16T20:01:11.935Z,10.64
2022-11-16T20:03:15.076Z,10.64
2022-11-16T20:05:18.263Z,10.63
2022-11-16T20:07:30.079Z,10.65
2022-11-16T20:09:33.686Z,10.65
2022-11-16T20:11:48.229Z,10.56
2022-11-16T20:13:53.170Z,10.57
2022-11-16T20:16:11.087Z,10.49
2022-11-16T20:18:14.185Z,10.49
2022-11-16T20:20:17.523Z,10.43
2022-11-16T20:22:20.450Z,10.40
2022-11-16T20:24:24.839Z,10.37
2022-11-16T20:26:42.701Z,10.38
2022-11-16T20:33:22.973Z,10.32
2022-11-16T20:35:33.478Z,10.28
2022-11-16T20:37:46.698Z,10.30
2022-11-16T20:40:02.100Z,10.30
2022-11-16T20:42:05.395Z,10.34
2022-11-16T20:44:58.290Z,10.37
2022-11-16T20:47:01.812Z,10.40
2022-11-16T20:49:07.853Z,10.39
2022-11-16T20:51:13.627Z,10.40
2022-11-16T20:53:23.793Z,10.40
2022-11-16T20:55:32.235Z,10.38
2022-11-16T20:57:35.250Z,10.43
2022-11-16T20:59:38.420Z,10.41
2022-11-16T21:05:21.582Z,10.46
2022-11-16T21:07:28.004Z,10.50
2022-11-16T21:09:51.056Z,10.52
2022-11-16T21:12:12.915Z,10.56
2022-11-16T21:14:48.456Z,10.58
2022-11-16T21:19:18.277Z,10.61
2022-11-16T21:21:21.113Z,10.62
2022-11-16T21:23:28.507Z,10.64
2022-11-16T21:25:31.398Z,10.66
2022-11-16T21:27:42.601Z,10.66
2022-11-16T21:29:53.106Z,10.65
2022-11-16T21:31:59.811Z,10.70
2022-11-16T21:34:10.643Z,10.70
2022-11-16T21:36:15.270Z,10.73
2022-11-16T21:38:18.152Z,10.73
2022-11-16T21:40:21.183Z,10.73
2022-11-16T21:42:24.088Z,10.79
2022-11-16T21:44:41.765Z,10.80
2022-11-16T21:47:00.675Z,10.77
2022-11-16T21:49:03.805Z,10.78
2022-11-16T21:51:09.170Z,10.77
2022-11-16T21:53:12.252Z,10.78
2022-11-16T21:55:15.681Z,10.79
2022-11-16T21:57:22.956Z,10.75
2022-11-16T21:59:43.800Z,10.76
2022-11-16T22:02:02.167Z,10.74
2022-11-16T22:04:22.637Z,10.69
2022-11-16T22:06:43.478Z,10.75
2022-11-16T22:08:47.188Z,10.78
2022-11-16T22:10:51.715Z,10.79
2022-11-16T22:12:54.896Z,10.84
2022-11-16T22:15:04.043Z,10.90
2022-11-16T22:17:08.650Z,11.00
2022-11-16T22:19:19.752Z,11.11
2022-11-16T22:21:22.968Z,11.19
2022-11-16T22:23:25.849Z,11.28
2022-11-16T22:25:28.890Z,11.33
2022-11-16T22:27:31.957Z,11.36
2022-11-16T22:29:48.562Z,11.38
2022-11-16T22:31:55.571Z,11.39
2022-11-16T22:33:58.413Z,11.41
2022-11-16T22:36:09.596Z,11.42
2022-11-16T22:38:12.774Z,11.41
2022-11-16T22:40:25.559Z,11.43
2022-11-16T22:42:28.662Z,11.44
2022-11-16T22:44:31.725Z,11.47
2022-11-16T22:46:34.602Z,11.46
2022-11-16T22:48:41.624Z,11.46
2022-11-16T22:50:44.615Z,11.48
2022-11-16T22:52:47.580Z,11.49
2022-11-16T22:54:53.840Z,11.52
2022-11-16T22:57:04.122Z,11.54
2022-11-16T22:59:10.922Z,11.54
2022-11-16T23:01:13.848Z,11.57
2022-11-16T23:03:19.899Z,11.61
2022-11-16T23:05:30.034Z,11.64
2022-11-16T23:07:33.161Z,11.66
2022-11-16T23:09:36.056Z,11.69
2022-11-16T23:11:56.329Z,11.69
2022-11-16T23:14:16.805Z,11.70
2022-11-16T23:16:27.398Z,11.77
2022-11-16T23:19:03.769Z,11.76
2022-11-16T23:21:27.884Z,11.77
2022-11-16T23:23:48.293Z,11.80
2022-11-16T23:26:08.659Z,11.83
2022-11-16T23:28:14.294Z,11.84
2022-11-16T23:30:17.338Z,11.87
2022-11-16T23:32:23.696Z,11.89
2022-11-16T23:34:26.685Z,11.87
2022-11-16T23:36:33.208Z,11.87
2022-11-16T23:38:49.422Z,11.88
2022-11-16T23:40:55.398Z,11.85
2022-11-16T23:43:16.179Z,11.86
2022-11-16T23:45:20.490Z,11.86
2022-11-16T23:47:24.226Z,11.85
2022-11-16T23:49:27.332Z,11.87
2022-11-16T23:51:34.393Z,11.84
2022-11-16T23:53:37.578Z,11.86
2022-11-16T23:55:41.313Z,11.83
2022-11-16T23:57:44.223Z,11.85
2022-11-16T23:59:47.106Z,11.83
